Swanville, Maine
Current Conditions -  °F | °C
As of 11:35 AM on Thursday 29 Jan 2015 (Local Time) from KRKD Reporting Station
Clear Clear  
Wind Chill: 21°   Ceiling: Unl
Heat Index: 27°   Visibility: 10mi
Dew Point:   Wind: 5mph
Humidity: 40%   Direction: 340°NNW
Pressure: 30.28"   Gusts: NA
Location:  44.4453°N, 69.0334°W
Report Text: KRKD 291635Z AUTO 34004KT 10SM CLR M03/M15 A3028 RMK AO1
Loading
Personal Weather Stations






























Interactive Weather Map New forecast layout! Learn more

10-Day Weather Forecast

Advertisements
Track Severe Weather on mobile